CYYE

Fort Nelson Airport

Fort Nelson, British Columbia, Canada
METAR CYYE 171400Z VRB02KT 15SM -SN BKN006 OVC120 M15/M17 A2949 RMK ST6AC2 SLP021
Observed Flight Rules
Dec-17 @ 14:00 UTC (48 minutes ago) Instrument Flight Rules
Wind Visibility Clouds Conditions
Variable at 2 knots 15 miles
  • Broken at 600' AGL
  • Overcast at 12,000' AGL
  • Light Snow
Temperatures Readings
Current -15°C / 5°F
Dewpoint -17°C / 1°F
Humidity 85%
Altimeter 29.49" Hg
Pressure 1002.1 hPa
Elevation 382
METAR CYYE 171400Z VRB02KT 15SM -SN BKN006 OVC120 M15/M17 A2949 RMK ST6AC2 SLP021
Observed Flight Rules
Dec-17 @ 14:00 UTC
(48 minutes ago)
IFR
Wind Visibility
Variable at 2 knots 15 miles
Clouds
  • Broken at 600' AGL
  • Overcast at 12,000' AGL
Conditions
  • Light Snow
Temperature Dewpoint
-15°C / 5°F -17°C / 1°F
Humidity Altimeter Pressure
85% 29.49" Hg 1002.1 hPa